aviador You're here:

SBFZ Decoded Metar

FORTALEZA in BRAZIL
Report Time2018-04-24 18:00:00
UTC Time2018-04-24 18:33:03
Flight Rules vfr VFR
Wind090° at 16 kt
W.Decomp.*RWY 13: 15.1 kt HW 5.2 kt LCW
W.Rank090° ranks 1
Current wind is above 090° avg. (11.7)
Visibility9999 m
Phenomena:N/A
Clouds:Few 025 Hf
Expected CloudBase > 3,200 ft AGL from Temp-Dew spread
CeilingNone
Temp30°C (ISA +15)
Dew Point22°C (62% RH)
Heat Index33.2°C
AAT28.9°C
QNH1011 hPa
Density Alt2,234 ft
Elevation82 ft
Report Wrong Elevation
Raw Report
METAR SBFZ 241800Z 09016KT 9999 FEW025 30/22 Q1011=

Extra information for SBFZ:More info

Metar Taf Metar & Taf Last 4 Metars F.Rules Stats Wind Profile Meteogram Temp Stats Airport Information Weather charts Add Link Nearby VenuesMetar ALERT Operation Metar Decoded Social comments